首页
METAR-TAF:

METAR-TAF

机场 :

拉奥罗拉国际机场

瓜地馬拉, 危地马拉

纬度: 14-35N, 经度: 090-31W, 海拔: 1489米

当前天气观测

该预报发布于48分钟前的04:00 UTC
风速14节,风向
温度 17°C
湿度 88%
气压 1027 hPa
能见度10公里或以上
散云层高于1400英尺

METAR: MGGT 190400Z 190400Z 36014KT 9999 SCT014 17/15 Q1027 A3033

时间: 22:48 (04:48 UTC)

预报

该预报发布于5小时和48分钟前的23:00 UTC
预报有效从19日的 00点(UTC)到 20日的 00点(UTC)
风速16节,风向北转东北
能见度10公里或以上
散云层高于1600英尺
散云层高于9000英尺
短暂存在
从 19日的 06点(UTC)到 19日的 16点(UTC)
散云层高于1200英尺
成为
从 19日的 16点(UTC)到 19日的 18点(UTC)
散云层高于1800英尺
短暂存在
从 19日的 18点(UTC)到 20日的 00点(UTC)
风速20节,风向
多云层高于1800英尺

TAF: MGGT 182300Z 1900/2000 03016KT 9999 SCT016 SCT090 TX24/1920Z TN15/1912Z TEMPO 1906/1916 SCT012 BECMG 1916/1918 SCT018 TEMPO 1918/2000 36020KT BKN018

超过4000个机场的气象观测和天气预报(METAR&TAF报告)。

可查询的气象台以黄色和红色小点在地图上表示。

将鼠标移到小点上方,可查看气象台名称。

然后点击查看天气观测和预报。

如需切换地图:点击带黑十字的绿色按钮放大地图;点击带横线的绿色按钮缩小地图;或者点击绿色箭头查看邻近地区的地图。


METAR-TAF: